createdAt,value
2023-03-22T00:00:00.817Z,37.30
2023-03-22T00:03:48.071Z,39.30
2023-03-22T00:07:15.274Z,36.90
2023-03-22T00:10:42.896Z,40.10
2023-03-22T00:14:10.026Z,40.70
2023-03-22T00:17:38.590Z,41.30
2023-03-22T00:21:06.056Z,40.50
2023-03-22T00:24:33.456Z,39.60
2023-03-22T00:28:04.127Z,40.90
2023-03-22T00:31:31.284Z,40.60
2023-03-22T00:34:58.625Z,40.10
2023-03-22T00:38:42.049Z,41.30
2023-03-22T00:42:10.117Z,40.10
2023-03-22T00:45:38.355Z,41.90
2023-03-22T00:49:06.327Z,42.30
2023-03-22T00:52:33.541Z,40.20
2023-03-22T00:56:01.059Z,41.50
2023-03-22T00:59:39.712Z,42.20
2023-03-22T01:03:07.182Z,45.60
2023-03-22T01:06:34.915Z,44.50
2023-03-22T01:10:02.746Z,45.90
2023-03-22T01:13:30.050Z,47.30
2023-03-22T01:16:58.585Z,45.50
2023-03-22T01:20:28.785Z,44.20
2023-03-22T01:23:56.379Z,46.10
2023-03-22T01:27:23.449Z,47.30
2023-03-22T01:30:51.397Z,47.90
2023-03-22T01:34:19.144Z,46.70
2023-03-22T01:37:49.209Z,44.10
2023-03-22T01:41:19.343Z,43.20
2023-03-22T01:45:01.529Z,43.40
2023-03-22T01:48:34.851Z,44.30
2023-03-22T01:52:06.670Z,43.30
2023-03-22T01:55:46.947Z,41.20
2023-03-22T01:59:18.665Z,40.90
2023-03-22T02:03:07.800Z,40.90
2023-03-22T02:06:41.205Z,42.00
2023-03-22T02:10:16.890Z,41.90
2023-03-22T02:14:17.208Z,43.10
2023-03-22T02:18:23.145Z,43.10
2023-03-22T02:22:39.169Z,44.70
2023-03-22T02:26:47.397Z,47.00
2023-03-22T02:30:48.524Z,47.70
2023-03-22T02:35:10.401Z,46.20
2023-03-22T02:39:09.866Z,45.70
2023-03-22T02:42:54.643Z,46.10
2023-03-22T02:46:28.595Z,44.30
2023-03-22T02:50:04.461Z,43.70
2023-03-22T02:53:38.434Z,42.60
2023-03-22T02:57:10.140Z,44.90
2023-03-22T03:00:42.881Z,41.10
2023-03-22T03:04:14.627Z,41.20
2023-03-22T03:07:45.775Z,42.80
2023-03-22T03:11:13.893Z,42.20
2023-03-22T03:14:41.217Z,41.70
2023-03-22T03:18:20.175Z,42.80
2023-03-22T03:21:55.618Z,43.30
2023-03-22T03:25:32.985Z,44.00
2023-03-22T03:29:06.338Z,44.50
2023-03-22T03:32:42.261Z,46.90
2023-03-22T03:36:13.630Z,46.10
2023-03-22T03:39:46.228Z,46.60
2023-03-22T03:43:14.652Z,46.80
2023-03-22T03:46:43.268Z,46.80
2023-03-22T03:50:13.008Z,45.00
2023-03-22T03:53:47.530Z,44.80
2023-03-22T03:57:16.942Z,43.90
2023-03-22T04:00:46.809Z,44.60
2023-03-22T04:04:26.943Z,44.80
2023-03-22T04:08:12.610Z,44.00
2023-03-22T04:11:40.632Z,43.80
2023-03-22T04:15:09.340Z,45.10
2023-03-22T04:18:36.140Z,45.00
2023-03-22T04:22:05.724Z,45.10
2023-03-22T04:25:34.755Z,45.00
2023-03-22T04:29:06.699Z,46.00
2023-03-22T04:32:34.436Z,47.20
2023-03-22T04:36:04.418Z,47.90
2023-03-22T04:39:36.894Z,48.30
2023-03-22T04:43:26.462Z,50.70
2023-03-22T04:47:00.119Z,51.50
2023-03-22T04:50:28.359Z,51.90
2023-03-22T04:53:59.106Z,51.00
2023-03-22T04:57:27.812Z,49.90
2023-03-22T05:00:57.009Z,51.10
2023-03-22T05:04:24.635Z,51.50
2023-03-22T05:07:56.735Z,50.10
2023-03-22T05:11:27.914Z,49.90
2023-03-22T05:15:14.414Z,50.60
2023-03-22T05:18:45.638Z,49.30
2023-03-22T05:22:14.253Z,50.30
2023-03-22T05:25:45.404Z,48.70
2023-03-22T05:29:15.782Z,48.90
2023-03-22T05:33:03.471Z,48.60
2023-03-22T05:36:37.099Z,50.60
2023-03-22T05:40:25.645Z,48.20
2023-03-22T05:43:52.707Z,48.90
2023-03-22T05:47:19.956Z,50.00
2023-03-22T05:51:13.546Z,50.20
2023-03-22T05:54:41.233Z,51.10
2023-03-22T05:58:08.779Z,50.70
2023-03-22T06:01:37.410Z,49.60
2023-03-22T06:05:14.600Z,49.70
2023-03-22T06:08:41.672Z,51.60
2023-03-22T06:12:09.443Z,51.50
2023-03-22T06:15:36.468Z,54.80
2023-03-22T06:19:08.316Z,53.80
2023-03-22T06:22:36.422Z,53.60
2023-03-22T06:26:03.677Z,54.60
2023-03-22T06:29:31.462Z,56.00
2023-03-22T06:33:01.131Z,53.10
2023-03-22T06:36:31.003Z,53.70
2023-03-22T06:40:11.096Z,49.80
2023-03-22T06:43:38.189Z,48.80
2023-03-22T06:47:29.261Z,49.80
2023-03-22T06:51:16.616Z,49.10
2023-03-22T06:54:46.106Z,50.30
2023-03-22T06:58:13.267Z,48.80
2023-03-22T07:01:40.129Z,49.00
2023-03-22T07:05:09.422Z,48.40
2023-03-22T07:08:37.615Z,48.40
2023-03-22T07:12:05.452Z,46.90
2023-03-22T07:15:34.885Z,47.30
2023-03-22T07:19:12.314Z,45.80
2023-03-22T07:22:39.556Z,44.10
2023-03-22T07:26:07.322Z,43.70
2023-03-22T07:29:37.081Z,45.00
2023-03-22T07:33:07.595Z,40.40
2023-03-22T07:36:35.343Z,41.70
2023-03-22T07:40:04.552Z,42.70
2023-03-22T07:43:44.151Z,39.80
2023-03-22T07:47:39.649Z,41.20
2023-03-22T07:51:28.534Z,41.50
2023-03-22T07:54:58.448Z,38.50
2023-03-22T07:58:26.850Z,39.50
2023-03-22T08:01:57.287Z,42.40
2023-03-22T08:05:30.731Z,41.10
2023-03-22T08:09:04.587Z,39.10
2023-03-22T08:12:32.837Z,39.60
2023-03-22T08:16:08.647Z,35.90
2023-03-22T08:19:36.318Z,36.10
2023-03-22T08:23:04.452Z,38.50
2023-03-22T08:27:04.075Z,36.10
2023-03-22T08:30:41.033Z,38.00
2023-03-22T08:34:13.026Z,39.60
2023-03-22T08:37:40.430Z,37.10
2023-03-22T08:41:09.683Z,39.80
2023-03-22T08:44:38.402Z,36.70
2023-03-22T08:48:09.090Z,38.20
2023-03-22T08:51:53.213Z,35.00
2023-03-22T08:56:01.920Z,34.50
2023-03-22T08:59:42.098Z,36.20
2023-03-22T09:03:23.412Z,34.40
2023-03-22T09:06:50.413Z,35.10
2023-03-22T09:10:17.435Z,31.90
2023-03-22T09:13:46.066Z,30.90
2023-03-22T09:17:13.162Z,31.40
2023-03-22T09:20:40.412Z,31.60
2023-03-22T09:24:09.420Z,28.60
2023-03-22T09:27:43.803Z,30.00
2023-03-22T09:31:12.130Z,30.60
2023-03-22T09:34:40.936Z,27.70
2023-03-22T09:38:08.907Z,27.70
2023-03-22T09:41:41.130Z,28.80
2023-03-22T09:45:15.178Z,25.40
2023-03-22T09:52:15.179Z,27.10
2023-03-22T09:55:46.929Z,28.20
2023-03-22T09:59:18.985Z,29.00
2023-03-22T10:02:55.862Z,28.30
2023-03-22T10:06:26.088Z,27.40
2023-03-22T10:10:06.947Z,26.60
2023-03-22T10:13:40.830Z,26.10
2023-03-22T10:17:12.050Z,24.30
2023-03-22T10:20:45.971Z,22.30
2023-03-22T10:24:18.113Z,22.90
2023-03-22T10:27:50.877Z,21.90
2023-03-22T10:31:21.634Z,22.30
2023-03-22T10:34:49.655Z,23.60
2023-03-22T10:38:24.544Z,23.10
2023-03-22T10:41:55.387Z,23.50
2023-03-22T10:45:25.611Z,24.00
2023-03-22T10:48:57.535Z,22.30
2023-03-22T10:52:38.031Z,21.80
2023-03-22T10:56:05.183Z,22.50
2023-03-22T10:59:47.572Z,22.60
2023-03-22T11:03:29.795Z,22.10
2023-03-22T11:06:57.460Z,21.80
2023-03-22T11:10:28.664Z,22.70
2023-03-22T11:14:01.261Z,22.60
2023-03-22T11:17:28.637Z,21.90
2023-03-22T11:21:01.042Z,22.00
2023-03-22T11:24:29.738Z,21.30
2023-03-22T11:27:58.982Z,22.60
2023-03-22T11:31:26.250Z,23.10
2023-03-22T11:35:03.549Z,22.20
2023-03-22T11:38:37.572Z,24.70
2023-03-22T11:42:07.538Z,23.70
2023-03-22T11:45:39.260Z,23.40
2023-03-22T11:49:16.303Z,22.80
2023-03-22T11:52:48.673Z,22.10
2023-03-22T11:56:20.218Z,20.70
2023-03-22T11:59:55.574Z,20.10
2023-03-22T12:03:27.661Z,19.90
2023-03-22T12:06:58.137Z,18.70
2023-03-22T12:10:31.334Z,18.50
2023-03-22T12:14:02.036Z,18.80
2023-03-22T12:17:36.869Z,19.10
2023-03-22T12:21:05.824Z,19.10
2023-03-22T12:24:34.194Z,18.40
2023-03-22T12:28:07.249Z,18.40
2023-03-22T12:31:38.625Z,18.30
2023-03-22T12:35:17.298Z,19.10
2023-03-22T12:38:51.382Z,20.30
2023-03-22T12:42:23.420Z,18.30
2023-03-22T12:45:54.578Z,17.90
2023-03-22T12:49:28.490Z,18.80
2023-03-22T12:52:58.265Z,16.80
2023-03-22T12:56:30.872Z,16.40
2023-03-22T13:00:00.547Z,16.60
2023-03-22T13:03:31.748Z,16.90
2023-03-22T13:07:10.173Z,17.60
2023-03-22T13:11:05.186Z,16.10
2023-03-22T13:15:02.321Z,14.60
2023-03-22T13:19:00.835Z,13.70
2023-03-22T13:22:31.498Z,14.50
2023-03-22T13:26:16.480Z,13.80
2023-03-22T13:29:43.602Z,14.00
2023-03-22T13:33:26.602Z,14.60
2023-03-22T13:40:37.913Z,12.70
2023-03-22T13:44:21.509Z,14.00
2023-03-22T13:48:04.579Z,14.20
2023-03-22T13:51:34.006Z,13.80
2023-03-22T13:55:01.329Z,13.50
2023-03-22T13:58:51.266Z,13.80
2023-03-22T14:02:26.507Z,15.10
2023-03-22T14:06:01.721Z,15.60
2023-03-22T14:09:33.145Z,17.20
2023-03-22T14:13:04.176Z,18.70
2023-03-22T14:16:41.495Z,17.20
2023-03-22T14:20:13.673Z,16.20
